Time;durP1;ratioP1;P1;durP2;ratioP2;P2;SDS_P1;SDS_P2;PMS_P1;PMS_P2;Temp;Humidity;BMP_temperature;BMP_pressure;BME280_temperature;BME280_humidity;BME280_pressure;Samples;Min_cycle;Max_cycle;Signal;HPM_P1;HPM_P2
2022/04/28 00:02:02;;;;;;;25.80;12.90;;;;;3.80;97110.00;;;;8394287;28;20305;-68
2022/04/28 00:06:05;;;;;;;20.20;10.93;;;;;3.90;97116.00;;;;8393433;28;20234;-68
2022/04/28 00:10:12;;;;;;;16.20;10.10;;;;;3.80;97112.00;;;;8394838;28;20655;-68
2022/04/28 00:14:16;;;;;;;25.73;12.53;;;;;3.70;97110.00;;;;8391210;28;20660;-68
2022/04/28 00:18:50;;;;;;;21.27;10.63;;;;;3.70;97109.00;;;;8397852;28;20212;-69
2022/04/28 00:22:53;;;;;;;17.67;9.63;;;;;3.70;97116.00;;;;8399973;28;20298;-67
2022/04/28 00:27:29;;;;;;;20.97;10.73;;;;;3.60;97108.00;;;;8400016;28;20423;-67
2022/04/28 00:31:32;;;;;;;23.27;12.13;;;;;3.60;97114.00;;;;8396061;28;20224;-67
2022/04/28 00:36:10;;;;;;;24.17;9.67;;;;;3.60;97112.00;;;;8399958;28;20552;-68
2022/04/28 00:40:13;;;;;;;24.60;11.33;;;;;3.70;97114.00;;;;8399423;28;20310;-69
2022/04/28 00:44:47;;;;;;;22.40;11.20;;;;;3.70;97112.00;;;;8400227;28;20216;-68
2022/04/28 00:54:03;;;;;;;22.90;10.90;;;;;3.70;97113.00;;;;8399175;28;20316;-72
2022/04/28 00:58:06;;;;;;;22.17;12.23;;;;;3.80;97108.00;;;;8399763;28;20610;-73
2022/04/28 01:02:40;;;;;;;24.57;12.20;;;;;3.80;97107.00;;;;8399014;28;20226;-73
2022/04/28 01:06:45;;;;;;;22.20;10.37;;;;;3.80;97111.00;;;;8399294;28;20217;-73
2022/04/28 01:10:48;;;;;;;20.77;10.37;;;;;3.70;97101.00;;;;8397489;28;20226;-73
2022/04/28 01:15:25;;;;;;;21.27;11.40;;;;;3.60;97099.00;;;;8398709;28;20229;-73
2022/04/28 01:20:02;;;;;;;24.63;12.07;;;;;3.60;97111.00;;;;8397798;28;20627;-73
2022/04/28 01:24:07;;;;;;;21.93;9.97;;;;;3.60;97109.00;;;;8397584;28;20227;-74
2022/04/28 01:28:10;;;;;;;24.73;10.70;;;;;3.60;97106.00;;;;8397069;28;20225;-73
2022/04/28 01:32:47;;;;;;;20.40;10.17;;;;;3.40;97098.00;;;;8398188;28;20225;-72
2022/04/28 01:37:25;;;;;;;23.53;10.57;;;;;3.40;97098.00;;;;8395608;28;20224;-74
2022/04/28 01:42:01;;;;;;;21.33;10.17;;;;;3.30;97102.00;;;;8398150;28;20263;-73
2022/04/28 01:46:35;;;;;;;21.50;11.03;;;;;3.20;97092.00;;;;8396423;28;20306;-74
2022/04/28 01:55:47;;;;;;;19.60;9.33;;;;;3.00;97093.00;;;;8396433;28;20266;-74
2022/04/28 02:00:25;;;;;;;22.87;10.77;;;;;3.00;97106.00;;;;8397229;28;20252;-75
2022/04/28 02:04:59;;;;;;;22.47;10.40;;;;;3.00;97107.00;;;;8396784;28;20305;-74
2022/04/28 02:09:36;;;;;;;22.77;10.13;;;;;2.90;97105.00;;;;8396484;28;20232;-72
2022/04/28 02:13:40;;;;;;;23.50;10.57;;;;;2.90;97108.00;;;;8397244;28;20228;-72
2022/04/28 02:18:16;;;;;;;19.73;10.23;;;;;2.80;97100.00;;;;8396103;28;20615;-71
2022/04/28 02:22:54;;;;;;;21.93;10.83;;;;;2.80;97103.00;;;;8396228;28;20220;-72
2022/04/28 02:27:29;;;;;;;24.57;11.13;;;;;2.80;97106.00;;;;8396576;28;20552;-72
2022/04/28 02:32:06;;;;;;;20.37;11.07;;;;;2.80;97104.00;;;;8396280;28;20224;-71
2022/04/28 02:36:09;;;;;;;19.70;10.10;;;;;2.80;97106.00;;;;8395720;28;20244;-70
2022/04/28 02:40:47;;;;;;;21.60;9.93;;;;;2.70;97098.00;;;;8395720;28;20744;-70
2022/04/28 02:45:24;;;;;;;18.40;9.60;;;;;2.60;97098.00;;;;8394196;28;20306;-69
2022/04/28 02:50:01;;;;;;;23.23;11.13;;;;;2.60;97098.00;;;;8395306;28;20617;-70
2022/04/28 02:54:38;;;;;;;20.73;10.43;;;;;2.70;97107.00;;;;8394507;28;20331;-69
2022/04/28 02:59:17;;;;;;;20.40;9.23;;;;;2.60;97106.00;;;;8395343;28;20557;-68
2022/04/28 03:03:21;;;;;;;20.73;9.93;;;;;2.50;97107.00;;;;8383720;22;20323;-69
2022/04/28 03:11:45;;;;;;;16.37;8.73;;;;;2.50;97095.00;;;;8292599;28;20694;-69
2022/04/28 03:15:50;;;;;;;18.13;9.47;;;;;2.40;97105.00;;;;8303941;28;20267;-69
2022/04/28 03:19:53;;;;;;;29.00;9.67;;;;;2.40;97102.00;;;;8300972;28;20226;-71
2022/04/28 03:23:57;;;;;;;21.30;9.20;;;;;2.30;97112.00;;;;8303222;28;20238;-71
2022/04/28 03:28:00;;;;;;;17.47;9.33;;;;;2.30;97106.00;;;;8311073;28;20223;-69
2022/04/28 03:32:08;;;;;;;18.40;9.63;;;;;2.40;97112.00;;;;8296665;28;20236;-71
2022/04/28 03:40:29;;;;;;;20.47;9.37;;;;;2.40;97119.00;;;;8309051;28;20225;-71
2022/04/28 03:44:32;;;;;;;16.60;9.20;;;;;2.30;97116.00;;;;8307234;28;20257;-68
2022/04/28 03:48:37;;;;;;;15.97;9.23;;;;;2.30;97125.00;;;;8306684;28;20256;-70
2022/04/28 03:52:42;;;;;;;18.60;9.17;;;;;2.20;97125.00;;;;8298896;28;20221;-70
2022/04/28 03:56:45;;;;;;;19.20;9.40;;;;;2.20;97125.00;;;;8305525;28;20745;-70
2022/04/28 04:00:49;;;;;;;14.37;8.07;;;;;2.10;97132.00;;;;8307732;28;20221;-69
2022/04/28 04:04:53;;;;;;;20.83;9.63;;;;;2.10;97131.00;;;;8279721;28;20244;-70
2022/04/28 04:08:56;;;;;;;16.57;8.87;;;;;2.10;97134.00;;;;8273872;28;20230;-69
2022/04/28 04:13:00;;;;;;;18.30;9.27;;;;;2.10;97134.00;;;;8279046;28;20750;-72
2022/04/28 04:17:03;;;;;;;17.53;8.93;;;;;2.20;97139.00;;;;8276738;28;20288;-70
2022/04/28 04:21:08;;;;;;;16.20;7.97;;;;;2.20;97150.00;;;;8274067;28;20326;-69
2022/04/28 04:25:11;;;;;;;16.20;8.87;;;;;2.20;97154.00;;;;8277454;28;20226;-69
2022/04/28 04:29:15;;;;;;;20.77;9.47;;;;;2.30;97150.00;;;;8281727;28;20312;-71
2022/04/28 04:33:18;;;;;;;16.80;8.50;;;;;2.50;97153.00;;;;8262284;28;20684;-72
2022/04/28 04:37:22;;;;;;;17.50;8.90;;;;;2.50;97159.00;;;;8272823;28;20232;-69
2022/04/28 04:41:26;;;;;;;14.60;8.40;;;;;2.60;97159.00;;;;8256463;28;20637;-68
2022/04/28 04:45:30;;;;;;;20.10;10.77;;;;;2.70;97164.00;;;;8278989;28;20227;-69
2022/04/28 04:49:33;;;;;;;18.60;9.73;;;;;2.90;97161.00;;;;8269395;28;20234;-68
2022/04/28 04:53:38;;;;;;;22.13;10.33;;;;;3.10;97164.00;;;;8276088;28;20240;-69
2022/04/28 04:57:41;;;;;;;18.27;10.17;;;;;3.20;97165.00;;;;8272665;28;20261;-73
2022/04/28 05:01:44;;;;;;;18.40;9.43;;;;;3.40;97177.00;;;;8266498;28;20267;-70
2022/04/28 05:05:48;;;;;;;21.93;10.20;;;;;3.60;97183.00;;;;8268719;28;20253;-69
2022/04/28 05:09:52;;;;;;;21.97;9.90;;;;;3.80;97182.00;;;;8277310;28;20257;-67
2022/04/28 05:13:55;;;;;;;16.47;9.57;;;;;3.90;97183.00;;;;8275491;28;20245;-70
2022/04/28 05:17:59;;;;;;;17.83;9.73;;;;;4.10;97183.00;;;;8277425;28;21013;-69
2022/04/28 05:22:04;;;;;;;18.93;10.27;;;;;4.30;97193.00;;;;8282879;28;20232;-67
2022/04/28 05:26:08;;;;;;;18.77;10.57;;;;;4.50;97201.00;;;;8282938;28;20232;-68
2022/04/28 05:30:12;;;;;;;20.10;11.50;;;;;4.80;97209.00;;;;8278757;28;20243;-66
2022/04/28 05:34:15;;;;;;;23.53;12.40;;;;;5.10;97206.00;;;;8274144;28;20220;-69
2022/04/28 05:38:18;;;;;;;21.70;11.47;;;;;5.50;97209.00;;;;8279051;28;20231;-72
2022/04/28 05:45:41;;;;;;;29.77;14.03;;;;;5.80;97214.00;;;;8271789;28;20724;-69
2022/04/28 05:46:47;;;;;;;22.90;11.43;;;;;6.20;97215.00;;;;8280687;28;20251;-68
2022/04/28 05:50:50;;;;;;;33.37;17.03;;;;;6.60;97225.00;;;;8275573;28;20228;-69
2022/04/28 05:54:53;;;;;;;35.83;18.60;;;;;7.10;97216.00;;;;8276671;28;20235;-68
2022/04/28 05:58:59;;;;;;;31.90;17.87;;;;;7.50;97222.00;;;;8275384;28;20281;-69
2022/04/28 06:03:02;;;;;;;31.67;17.67;;;;;7.90;97230.00;;;;8274295;28;20240;-69
2022/04/28 06:07:06;;;;;;;27.37;17.20;;;;;8.30;97233.00;;;;8273221;28;20222;-70
2022/04/28 06:11:10;;;;;;;39.90;16.90;;;;;8.70;97238.00;;;;8279063;28;20320;-70
2022/04/28 06:15:14;;;;;;;30.20;16.70;;;;;9.00;97241.00;;;;8272287;28;20236;-72
2022/04/28 06:19:19;;;;;;;27.87;15.43;;;;;9.20;97256.00;;;;8269249;28;20232;-72
2022/04/28 06:23:23;;;;;;;25.83;15.30;;;;;9.50;97254.00;;;;8273000;28;20248;-75
2022/04/28 06:27:28;;;;;;;26.30;15.80;;;;;9.60;97257.00;;;;8279627;28;20249;-75
2022/04/28 06:31:32;;;;;;;23.05;14.77;;;;;9.80;97264.00;;;;8271851;28;20230;-75
2022/04/28 06:35:38;;;;;;;22.17;13.85;;;;;10.10;97270.00;;;;8273437;28;20248;-75
2022/04/28 06:39:41;;;;;;;24.90;14.43;;;;;10.40;97272.00;;;;8279771;28;20292;-76
2022/04/28 06:43:44;;;;;;;19.83;12.15;;;;;10.60;97275.00;;;;8261348;28;20225;-74
2022/04/28 06:47:49;;;;;;;20.93;13.80;;;;;10.80;97276.00;;;;8278839;28;20226;-75
2022/04/28 06:51:52;;;;;;;17.85;12.57;;;;;11.20;97276.00;;;;8277141;28;20233;-75
2022/04/28 06:55:55;;;;;;;17.85;12.10;;;;;11.60;97282.00;;;;8264572;28;20329;-75
2022/04/28 06:59:59;;;;;;;16.80;10.82;;;;;12.10;97282.00;;;;8275227;28;20827;-74
2022/04/28 07:04:03;;;;;;;19.35;10.38;;;;;12.50;97287.00;;;;8276101;28;20568;-75
2022/04/28 07:08:07;;;;;;;17.70;10.27;;;;;12.70;97292.00;;;;8280081;28;20247;-74
2022/04/28 07:12:12;;;;;;;12.52;9.65;;;;;13.00;97293.00;;;;8275907;28;20735;-75
2022/04/28 07:16:15;;;;;;;12.88;9.10;;;;;13.50;97298.00;;;;8270950;28;20356;-74
2022/04/28 07:20:20;;;;;;;12.35;9.05;;;;;14.00;97299.00;;;;8274797;28;20781;-73
2022/04/28 07:24:23;;;;;;;18.13;8.65;;;;;14.80;97312.00;;;;8276428;28;21917;-74
2022/04/28 07:28:27;;;;;;;14.93;9.52;;;;;15.50;97311.00;;;;8262165;28;20306;-75
2022/04/28 07:32:30;;;;;;;14.20;8.52;;;;;15.90;97310.00;;;;8276979;28;20733;-74
2022/04/28 07:36:34;;;;;;;11.27;8.32;;;;;16.40;97312.00;;;;8275697;28;20799;-78
2022/04/28 07:40:37;;;;;;;14.20;10.07;;;;;16.70;97313.00;;;;8273282;28;20244;-81
2022/04/28 07:44:41;;;;;;;15.68;9.93;;;;;17.10;97318.00;;;;8277319;28;20317;-80
2022/04/28 07:48:44;;;;;;;12.65;8.35;;;;;17.50;97311.00;;;;8275838;28;20306;-77
2022/04/28 07:52:49;;;;;;;13.55;8.23;;;;;17.70;97319.00;;;;8277227;28;20226;-77
2022/04/28 07:56:52;;;;;;;11.95;8.40;;;;;17.90;97317.00;;;;8275995;28;20312;-76
2022/04/28 08:00:55;;;;;;;9.73;7.63;;;;;18.00;97320.00;;;;8273792;28;20230;-75
2022/04/28 08:04:59;;;;;;;10.63;7.70;;;;;18.80;97320.00;;;;8274451;28;20230;-81
2022/04/28 08:09:04;;;;;;;13.38;8.73;;;;;18.90;97323.00;;;;8275646;28;20289;-82
2022/04/28 08:13:07;;;;;;;12.85;8.68;;;;;19.40;97333.00;;;;8270405;28;20320;-82
2022/04/28 08:17:11;;;;;;;15.32;8.15;;;;;19.60;97343.00;;;;8274467;28;20233;-81
2022/04/28 08:21:14;;;;;;;10.10;7.20;;;;;19.40;97329.00;;;;8279413;28;20415;-79
2022/04/28 08:25:19;;;;;;;10.75;8.05;;;;;19.40;97331.00;;;;8269022;28;20309;-78
2022/04/28 08:29:28;;;;;;;24.27;15.45;;;;;19.50;97341.00;;;;8278590;28;20237;-81
2022/04/28 08:33:31;;;;;;;11.40;8.43;;;;;20.00;97348.00;;;;8272856;28;20608;-80
2022/04/28 08:37:36;;;;;;;10.68;7.80;;;;;20.40;97344.00;;;;8281358;28;20910;-77
2022/04/28 08:41:45;;;;;;;13.25;7.88;;;;;20.20;97348.00;;;;8281139;28;20308;-79
2022/04/28 08:50:23;;;;;;;6.80;6.10;;;;;22.00;97359.00;;;;8277723;28;20222;-80
2022/04/28 08:54:30;;;;;;;9.88;6.78;;;;;22.30;97356.00;;;;8279737;28;20254;-82
2022/04/28 08:58:41;;;;;;;10.20;7.18;;;;;21.50;97361.00;;;;8276189;28;20218;-76
2022/04/28 09:02:45;;;;;;;9.52;6.75;;;;;21.70;97364.00;;;;8280124;28;20234;-77
2022/04/28 09:06:51;;;;;;;8.15;7.00;;;;;21.60;97363.00;;;;8283238;28;20602;-78
2022/04/28 09:10:56;;;;;;;11.38;6.68;;;;;21.10;97364.00;;;;8277243;28;20218;-73
2022/04/28 09:15:13;;;;;;;7.18;6.00;;;;;20.60;97359.00;;;;8283661;28;20328;-71
2022/04/28 09:19:19;;;;;;;6.82;5.80;;;;;21.10;97368.00;;;;8278892;28;20332;-72
2022/04/28 09:23:23;;;;;;;8.25;6.68;;;;;21.70;97362.00;;;;8280080;28;20330;-71
2022/04/28 09:27:26;;;;;;;7.30;6.13;;;;;21.50;97364.00;;;;8279026;28;20727;-71
2022/04/28 09:31:35;;;;;;;6.70;4.97;;;;;21.90;97357.00;;;;8278812;28;20884;-72
2022/04/28 09:35:58;;;;;;;5.68;5.07;;;;;21.60;97367.00;;;;8280640;28;20563;-72
2022/04/28 09:44:25;;;;;;;10.15;5.97;;;;;20.90;97353.00;;;;8281118;28;20661;-77
2022/04/28 09:48:32;;;;;;;6.18;5.43;;;;;20.70;97350.00;;;;8272577;28;20269;-78
2022/04/28 09:52:35;;;;;;;8.65;5.63;;;;;21.00;97354.00;;;;8270560;28;20230;-76
2022/04/28 09:56:39;;;;;;;6.53;5.32;;;;;20.80;97357.00;;;;8272250;28;20258;-76
2022/04/28 10:00:43;;;;;;;6.20;5.05;;;;;20.10;97354.00;;;;8276304;28;20330;-76
2022/04/28 10:04:48;;;;;;;9.88;5.32;;;;;20.00;97351.00;;;;8267216;28;20723;-75
2022/04/28 10:08:52;;;;;;;7.68;5.70;;;;;19.70;97352.00;;;;8279752;28;20222;-75
2022/04/28 10:12:56;;;;;;;7.18;4.90;;;;;20.20;97345.00;;;;8270644;28;20700;-75
2022/04/28 10:17:01;;;;;;;6.22;5.40;;;;;21.10;97353.00;;;;8274597;28;20233;-73
2022/04/28 10:21:07;;;;;;;9.25;6.20;;;;;20.70;97354.00;;;;8281058;28;20309;-73
2022/04/28 10:34:11;;;;;;;12.88;6.32;;;;;20.60;97354.00;;;;8283292;28;20233;-72
2022/04/28 10:38:21;;;;;;;11.60;5.45;;;;;21.50;97354.00;;;;8277085;28;20912;-73
2022/04/28 10:42:57;;;;;;;7.93;4.93;;;;;22.50;97356.00;;;;8280078;28;20858;-74
2022/04/28 10:47:01;;;;;;;7.70;4.95;;;;;22.90;97348.00;;;;8269929;28;20252;-74
2022/04/28 10:51:15;;;;;;;5.70;5.05;;;;;23.20;97346.00;;;;8272932;28;20274;-73
2022/04/28 10:55:19;;;;;;;8.02;5.25;;;;;22.00;97341.00;;;;8268254;28;20249;-73
2022/04/28 10:59:35;;;;;;;8.57;5.30;;;;;21.10;97350.00;;;;8278741;28;20313;-76
2022/04/28 11:03:53;;;;;;;5.13;4.63;;;;;20.50;97349.00;;;;8277248;28;20604;-75
2022/04/28 11:08:00;;;;;;;13.32;6.78;;;;;20.20;97349.00;;;;8274646;28;20225;-73
2022/04/28 11:12:10;;;;;;;8.68;5.53;;;;;20.90;97343.00;;;;8281474;28;20317;-75
2022/04/28 11:16:14;;;;;;;5.25;4.72;;;;;21.60;97353.00;;;;8272944;28;21116;-75
2022/04/28 11:20:21;;;;;;;6.25;5.20;;;;;22.80;97350.00;;;;8273927;28;20233;-75
2022/04/28 11:24:26;;;;;;;8.40;5.05;;;;;23.50;97347.00;;;;8274988;28;20230;-73
2022/04/28 11:28:32;;;;;;;6.10;5.50;;;;;24.50;97351.00;;;;8271351;28;20226;-75
2022/04/28 11:32:35;;;;;;;6.03;4.80;;;;;25.10;97356.00;;;;8280758;28;20248;-76
2022/04/28 11:36:41;;;;;;;6.35;5.22;;;;;24.70;97360.00;;;;8277614;28;20236;-75
2022/04/28 11:40:57;;;;;;;7.00;4.97;;;;;25.40;97354.00;;;;8270862;28;20253;-73
2022/04/28 11:45:02;;;;;;;6.65;4.78;;;;;27.20;97355.00;;;;8268339;28;20228;-74
2022/04/28 11:49:05;;;;;;;5.93;5.32;;;;;28.30;97358.00;;;;8279803;28;20297;-74
2022/04/28 11:53:12;;;;;;;5.93;5.32;;;;;28.40;97365.00;;;;8280987;28;20823;-74
2022/04/28 11:57:15;;;;;;;5.47;4.95;;;;;27.40;97354.00;;;;8273832;28;20230;-76
2022/04/28 12:01:21;;;;;;;6.80;5.68;;;;;25.40;97357.00;;;;8273120;28;20265;-77
2022/04/28 12:05:27;;;;;;;7.00;5.20;;;;;23.90;97351.00;;;;8280938;28;20276;-78
2022/04/28 12:22:44;;;;;;;8.93;4.88;;;;;23.10;97348.00;;;;8291439;28;20232;-71
2022/04/28 12:26:49;;;;;;;7.30;5.82;;;;;23.20;97349.00;;;;8294710;28;20235;-71
2022/04/28 12:30:54;;;;;;;5.57;4.93;;;;;22.50;97351.00;;;;8269684;28;20249;-71
2022/04/28 12:35:05;;;;;;;5.47;4.97;;;;;21.90;97340.00;;;;8277181;28;20222;-71
2022/04/28 12:39:09;;;;;;;8.98;5.18;;;;;21.60;97337.00;;;;8274937;28;20351;-70
2022/04/28 12:43:12;;;;;;;11.25;4.88;;;;;21.60;97333.00;;;;8277580;28;20260;-71
2022/04/28 12:47:15;;;;;;;7.40;4.47;;;;;22.30;97325.00;;;;8283534;28;20271;-71
2022/04/28 12:51:21;;;;;;;5.93;5.15;;;;;22.50;97336.00;;;;8287454;28;20606;-70
2022/04/28 12:55:36;;;;;;;7.68;5.20;;;;;22.50;97334.00;;;;8284307;28;20320;-70
2022/04/28 12:59:41;;;;;;;5.97;5.03;;;;;22.50;97330.00;;;;8287688;28;20233;-71
2022/04/28 13:03:54;;;;;;;8.73;5.57;;;;;22.20;97327.00;;;;8279205;28;20281;-71
2022/04/28 13:07:59;;;;;;;5.30;4.82;;;;;21.90;97322.00;;;;8282796;28;20222;-71
2022/04/28 13:12:05;;;;;;;7.80;5.57;;;;;21.60;97335.00;;;;8278130;28;20280;-71
2022/04/28 13:16:08;;;;;;;6.30;5.15;;;;;21.30;97321.00;;;;8274830;28;20813;-71
2022/04/28 13:20:12;;;;;;;6.95;5.30;;;;;21.30;97321.00;;;;8280286;28;20237;-71
2022/04/28 13:24:18;;;;;;;6.38;5.78;;;;;21.20;97309.00;;;;8283535;28;20233;-70
2022/04/28 13:28:21;;;;;;;6.97;5.07;;;;;21.00;97321.00;;;;8287213;28;20667;-69
2022/04/28 13:32:24;;;;;;;7.13;5.40;;;;;20.90;97312.00;;;;8284178;28;20735;-70
2022/04/28 13:36:28;;;;;;;6.32;5.25;;;;;21.60;97305.00;;;;8287557;28;20316;-71
2022/04/28 13:40:34;;;;;;;6.93;5.40;;;;;22.50;97307.00;;;;8285177;28;20222;-72
2022/04/28 13:44:37;;;;;;;6.20;5.03;;;;;23.70;97303.00;;;;8289194;28;20587;-72
2022/04/28 13:48:40;;;;;;;7.47;5.07;;;;;24.30;97296.00;;;;8288994;28;20221;-70
2022/04/28 13:52:43;;;;;;;5.85;4.80;;;;;24.70;97297.00;;;;8302221;28;20230;-72
2022/04/28 13:56:48;;;;;;;9.80;5.40;;;;;25.20;97296.00;;;;8286300;28;20321;-69
2022/04/28 14:00:52;;;;;;;6.47;5.43;;;;;24.00;97296.00;;;;8285523;28;20243;-71
2022/04/28 14:04:55;;;;;;;6.07;5.40;;;;;22.60;97295.00;;;;8285128;28;20230;-70
2022/04/28 14:08:59;;;;;;;7.68;5.28;;;;;21.70;97287.00;;;;8285870;28;20233;-71
2022/04/28 14:13:04;;;;;;;10.10;4.93;;;;;21.40;97281.00;;;;8283939;28;20317;-71
2022/04/28 14:17:07;;;;;;;6.03;5.13;;;;;21.20;97282.00;;;;8284582;28;20894;-71
2022/04/28 14:21:12;;;;;;;6.55;4.88;;;;;21.30;97277.00;;;;8283404;28;20225;-70
2022/04/28 14:25:15;;;;;;;5.40;4.85;;;;;21.30;97277.00;;;;8284704;28;20236;-70
2022/04/28 14:29:20;;;;;;;5.13;4.63;;;;;21.30;97283.00;;;;8284173;28;20676;-71
2022/04/28 14:33:23;;;;;;;4.78;4.30;;;;;21.40;97279.00;;;;8282493;28;20229;-70
2022/04/28 14:37:27;;;;;;;4.40;4.00;;;;;21.50;97274.00;;;;8270673;28;21961;-71
2022/04/28 14:41:30;;;;;;;8.25;4.05;;;;;21.60;97269.00;;;;8259722;28;20300;-71
2022/04/28 14:45:34;;;;;;;7.60;4.25;;;;;21.50;97271.00;;;;8283892;28;20241;-71
2022/04/28 14:53:59;;;;;;;6.32;3.65;;;;;20.60;97282.00;;;;8266637;28;20717;-71
2022/04/28 14:58:06;;;;;;;4.22;3.83;;;;;20.70;97276.00;;;;8284004;28;20231;-71
2022/04/28 15:02:12;;;;;;;5.18;4.00;;;;;21.00;97279.00;;;;8283114;28;20241;-71
2022/04/28 15:06:16;;;;;;;6.15;4.20;;;;;21.00;97277.00;;;;8282136;28;20233;-71
2022/04/28 15:10:20;;;;;;;5.00;4.50;;;;;20.60;97273.00;;;;8283408;28;20264;-69
2022/04/28 15:14:23;;;;;;;9.48;4.57;;;;;20.00;97273.00;;;;8282458;28;20658;-69
2022/04/28 15:18:28;;;;;;;6.22;4.57;;;;;19.70;97271.00;;;;8284699;28;20317;-72
2022/04/28 15:22:31;;;;;;;5.00;4.50;;;;;19.60;97275.00;;;;8284653;28;20446;-72
2022/04/28 15:26:34;;;;;;;5.13;4.45;;;;;19.50;97272.00;;;;8310220;28;20249;-71
2022/04/28 15:30:37;;;;;;;6.28;3.97;;;;;19.80;97269.00;;;;8283886;28;20301;-72
2022/04/28 15:34:42;;;;;;;6.07;4.10;;;;;20.20;97268.00;;;;8282808;28;20233;-71
2022/04/28 15:38:48;;;;;;;6.70;4.18;;;;;20.40;97257.00;;;;8284691;28;20222;-72
2022/04/28 15:42:54;;;;;;;6.00;4.10;;;;;20.60;97261.00;;;;8280328;28;20264;-70
2022/04/28 15:47:03;;;;;;;4.70;3.95;;;;;20.80;97263.00;;;;8272513;28;20308;-71
2022/04/28 15:51:07;;;;;;;3.33;3.10;;;;;21.00;97272.00;;;;8281022;28;20309;-71
2022/04/28 15:55:11;;;;;;;4.22;3.10;;;;;21.00;97267.00;;;;8277939;28;20648;-78
2022/04/28 15:59:14;;;;;;;3.22;3.00;;;;;21.10;97258.00;;;;8276937;28;20313;-77
2022/04/28 16:03:17;;;;;;;6.05;4.05;;;;;21.60;97259.00;;;;8266733;28;20253;-77
2022/04/28 16:07:22;;;;;;;8.00;3.50;;;;;21.90;97256.00;;;;8274001;28;20222;-77
2022/04/28 16:11:26;;;;;;;4.25;3.40;;;;;21.90;97261.00;;;;8279367;28;20670;-76
2022/04/28 16:15:29;;;;;;;3.97;3.50;;;;;21.60;97263.00;;;;8277287;28;20232;-78
2022/04/28 16:19:32;;;;;;;5.45;3.45;;;;;21.10;97265.00;;;;8280532;28;20305;-77
2022/04/28 16:23:37;;;;;;;4.40;3.95;;;;;21.00;97264.00;;;;8277320;28;20263;-73
2022/04/28 16:27:40;;;;;;;6.57;3.63;;;;;20.80;97260.00;;;;8271221;28;20293;-67
2022/04/28 16:31:44;;;;;;;4.93;3.50;;;;;21.30;97265.00;;;;8277953;28;20966;-67
2022/04/28 16:35:47;;;;;;;5.28;4.22;;;;;21.90;97264.00;;;;8278024;28;20221;-68
2022/04/28 16:39:52;;;;;;;6.75;4.28;;;;;22.10;97268.00;;;;8280124;28;20489;-69
2022/04/28 16:43:56;;;;;;;8.90;4.25;;;;;22.20;97265.00;;;;8278530;28;20234;-68
2022/04/28 16:47:59;;;;;;;4.43;4.03;;;;;21.70;97269.00;;;;8276882;28;20234;-69
2022/04/28 16:52:05;;;;;;;8.70;4.72;;;;;20.90;97273.00;;;;8281256;28;20234;-67
2022/04/28 16:56:10;;;;;;;5.32;4.20;;;;;20.20;97269.00;;;;8281063;28;20224;-67
2022/04/28 17:00:15;;;;;;;5.00;4.50;;;;;20.00;97274.00;;;;8275663;28;20225;-68
2022/04/28 17:04:18;;;;;;;6.60;4.40;;;;;20.50;97277.00;;;;8280869;28;20254;-68
2022/04/28 17:08:22;;;;;;;5.15;3.80;;;;;21.10;97284.00;;;;8282888;28;20245;-67
2022/04/28 17:12:26;;;;;;;4.43;3.30;;;;;21.60;97281.00;;;;8282929;28;20325;-68
2022/04/28 17:16:30;;;;;;;3.45;3.20;;;;;21.90;97287.00;;;;8283632;28;20232;-69
2022/04/28 17:20:33;;;;;;;3.50;3.20;;;;;21.20;97295.00;;;;8285425;28;20325;-68
2022/04/28 17:24:37;;;;;;;5.40;4.22;;;;;20.40;97299.00;;;;8284071;28;20288;-67
2022/04/28 17:28:43;;;;;;;5.97;4.40;;;;;19.70;97301.00;;;;8285662;28;20225;-69
2022/04/28 17:32:48;;;;;;;6.30;3.45;;;;;19.10;97303.00;;;;8273780;28;20218;-68
2022/04/28 17:36:52;;;;;;;4.20;3.80;;;;;18.60;97310.00;;;;8285822;28;20288;-67
2022/04/28 17:40:55;;;;;;;5.45;3.47;;;;;18.00;97309.00;;;;8279942;28;20258;-67
2022/04/28 17:45:00;;;;;;;6.13;3.97;;;;;17.30;97307.00;;;;8284065;28;20230;-68
2022/04/28 17:49:03;;;;;;;5.78;3.53;;;;;16.60;97303.00;;;;8282865;28;20265;-67
2022/04/28 17:53:15;;;;;;;4.90;3.75;;;;;16.00;97305.00;;;;8276170;28;20229;-67
2022/04/28 18:01:41;;;;;;;8.52;3.75;;;;;15.10;97310.00;;;;8275760;28;20309;-68
2022/04/28 18:05:44;;;;;;;7.55;4.43;;;;;14.70;97309.00;;;;8282269;28;20268;-67
2022/04/28 18:09:48;;;;;;;8.02;4.03;;;;;14.40;97318.00;;;;8284658;28;20259;-67
2022/04/28 18:13:52;;;;;;;10.02;5.10;;;;;14.00;97317.00;;;;8281580;28;20290;-68
2022/04/28 18:17:58;;;;;;;6.60;4.50;;;;;13.60;97319.00;;;;8277955;28;20226;-68
2022/04/28 18:22:03;;;;;;;9.43;6.00;;;;;13.30;97325.00;;;;8278765;28;20222;-68
2022/04/28 18:26:07;;;;;;;8.30;5.78;;;;;13.00;97318.00;;;;8279723;28;20320;-69
2022/04/28 18:30:11;;;;;;;10.25;7.35;;;;;12.60;97322.00;;;;8280352;28;20751;-67
2022/04/28 18:34:16;;;;;;;10.80;7.15;;;;;12.30;97317.00;;;;8271931;28;20687;-67
2022/04/28 18:47:05;;;;;;;8.05;6.20;;;;;11.40;97332.00;;;;8278314;28;20583;-69
2022/04/28 18:51:10;;;;;;;10.43;6.07;;;;;11.10;97333.00;;;;8275130;28;20310;-68
2022/04/28 18:55:14;;;;;;;6.97;5.75;;;;;10.80;97338.00;;;;8277393;28;20492;-68
2022/04/28 18:59:19;;;;;;;5.88;5.30;;;;;10.60;97350.00;;;;8279343;28;20317;-68
2022/04/28 19:03:23;;;;;;;6.68;5.10;;;;;10.40;97354.00;;;;8276141;28;20236;-69
2022/04/28 19:07:30;;;;;;;7.33;5.37;;;;;10.30;97354.00;;;;8280691;28;20709;-69
2022/04/28 19:11:34;;;;;;;13.87;5.53;;;;;10.20;97360.00;;;;8276726;28;20646;-69
2022/04/28 19:15:37;;;;;;;6.32;4.97;;;;;10.10;97354.00;;;;8284110;28;20654;-68
2022/04/28 19:19:42;;;;;;;7.20;5.17;;;;;10.00;97361.00;;;;8279937;28;20673;-68
2022/04/28 19:23:46;;;;;;;13.63;6.70;;;;;9.80;97368.00;;;;8275085;28;20317;-69
2022/04/28 19:27:50;;;;;;;13.57;7.07;;;;;9.80;97364.00;;;;8278011;28;20258;-70
2022/04/28 19:31:53;;;;;;;7.67;6.00;;;;;9.60;97365.00;;;;8272657;28;20309;-70
2022/04/28 19:35:57;;;;;;;11.13;7.77;;;;;9.40;97365.00;;;;8277718;28;20352;-69
2022/04/28 19:40:03;;;;;;;14.90;7.73;;;;;9.20;97358.00;;;;8281757;28;20332;-69
2022/04/28 19:44:07;;;;;;;15.00;9.43;;;;;9.10;97365.00;;;;8281987;28;20321;-68
2022/04/28 19:48:10;;;;;;;16.07;9.97;;;;;9.00;97355.00;;;;8281249;28;20230;-69
2022/04/28 19:52:14;;;;;;;15.13;9.20;;;;;8.80;97370.00;;;;8283144;28;20737;-69
2022/04/28 19:56:18;;;;;;;15.90;8.77;;;;;8.70;97363.00;;;;8270404;28;20236;-69
2022/04/28 20:00:22;;;;;;;16.03;8.30;;;;;8.50;97368.00;;;;8278521;28;20244;-69
2022/04/28 20:04:25;;;;;;;17.13;9.47;;;;;8.50;97366.00;;;;8278836;28;20237;-69
2022/04/28 20:08:32;;;;;;;14.60;8.27;;;;;8.40;97368.00;;;;8280101;28;20338;-68
2022/04/28 20:12:37;;;;;;;11.10;7.70;;;;;8.30;97371.00;;;;8271566;28;20308;-69
2022/04/28 20:16:42;;;;;;;13.13;7.73;;;;;8.20;97364.00;;;;8279445;28;20255;-69
2022/04/28 20:20:46;;;;;;;14.47;8.63;;;;;8.00;97376.00;;;;8281917;28;20316;-69
2022/04/28 20:24:52;;;;;;;14.20;8.20;;;;;8.00;97368.00;;;;8272172;28;20226;-68
2022/04/28 20:28:56;;;;;;;20.90;9.53;;;;;7.80;97374.00;;;;8273629;28;20312;-69
2022/04/28 20:33:00;;;;;;;12.17;7.50;;;;;7.80;97371.00;;;;8277776;28;20230;-70
2022/04/28 20:37:03;;;;;;;12.77;8.27;;;;;7.70;97377.00;;;;8285221;28;20257;-71
2022/04/28 20:41:06;;;;;;;12.60;7.27;;;;;7.50;97376.00;;;;8283683;28;20311;-70
2022/04/28 20:45:12;;;;;;;13.07;7.50;;;;;7.40;97389.00;;;;8286708;28;20304;-69
2022/04/28 20:49:16;;;;;;;10.20;6.63;;;;;7.30;97384.00;;;;8298032;28;20227;-70
2022/04/28 20:53:20;;;;;;;11.67;7.97;;;;;7.20;97382.00;;;;8272183;28;20230;-70
2022/04/28 20:57:26;;;;;;;13.27;8.30;;;;;7.20;97392.00;;;;8285071;28;20311;-70
2022/04/28 21:01:30;;;;;;;12.90;8.37;;;;;7.10;97377.00;;;;8277906;28;20244;-71
2022/04/28 21:05:35;;;;;;;18.70;7.80;;;;;7.00;97379.00;;;;8269611;28;20297;-70
2022/04/28 21:09:38;;;;;;;11.50;7.70;;;;;6.80;97384.00;;;;8283613;28;20222;-70
2022/04/28 21:13:42;;;;;;;14.67;8.13;;;;;6.80;97381.00;;;;8281164;28;20233;-69
2022/04/28 21:17:47;;;;;;;11.67;8.13;;;;;6.70;97386.00;;;;8276156;28;20226;-69
2022/04/28 21:21:50;;;;;;;14.90;9.23;;;;;6.60;97388.00;;;;8277769;28;20240;-69
2022/04/28 21:25:56;;;;;;;13.87;9.20;;;;;6.50;97389.00;;;;8280121;28;20244;-70
2022/04/28 21:30:02;;;;;;;17.30;9.80;;;;;6.40;97388.00;;;;8281040;28;20279;-69
2022/04/28 21:34:08;;;;;;;14.53;8.80;;;;;6.30;97385.00;;;;8280794;28;20256;-69
2022/04/28 21:38:12;;;;;;;15.73;9.87;;;;;6.30;97392.00;;;;8285580;28;20765;-69